Have a Safe July 4th! 

Flight Track Log - Related Links

Times and Time Zones

All times are in EDT time to prevent confusion due to time zone crossing. See the QXE106 flight status page for this flight to view local times or setup timezone preferences in your user account.

Time Position Orientation Groundspeed Altitude Reporting Facility
EDT Latitude Longitude Course Direction KTS MPH feet Rate Location/Type
Wed 04:44:18 PM 47.4364 -122.3064 166° South 162 186 1,200  Level Seattle Center
Wed 04:44:48 PM 47.4269 -122.3028 123° Southeast 138 159 1,800 1,714 Climbing Seattle Center
Wed 04:45:49 PM 47.3950 -122.2303 104° East 205 236 3,800 2,016 Climbing Seattle Center
Wed 04:46:50 PM 47.3808 -122.1469 118° Southeast 225 259 5,900 1,902 Climbing Seattle Center
Wed 04:47:52 PM 47.3517 -122.0658 99° East 242 278 7,700 1,659 Climbing Seattle Center
Wed 04:48:53 PM 47.3411 -121.9636 103° East 263 303 9,300 1,525 Climbing Seattle Center
Wed 04:49:54 PM 47.3236 -121.8556 105° East 273 314 10,800 1,475 Climbing Seattle Center
Wed 04:50:55 PM 47.3031 -121.7397 105° East 292 336 12,300 1,426 Climbing Seattle Center
Wed 04:51:56 PM 47.2825 -121.6244 105° East 294 338 13,700 1,415 Climbing Seattle Center
Wed 04:52:58 PM 47.2547 -121.4764 107° East 313 360 15,200 1,317 Climbing Seattle Center
Wed 04:53:59 PM 47.2281 -121.3514 109° East 323 372 16,400 787 Climbing Seattle Center
Wed 04:55:00 PM 47.1975 -121.2244 107° East 331 381 16,800 295 Climbing Seattle Center
Wed 04:56:01 PM 47.1703 -121.0972 108° East 331 381 17,000 98 Climbing Seattle Center
Wed 04:57:02 PM 47.1433 -120.9731 109° East 325 374 17,000  Level Seattle Center
Wed 04:58:04 PM 47.1097 -120.8283 109° East 325 374 17,000  Level Seattle Center
Wed 04:59:05 PM 47.0803 -120.7042 109° East 324 373 17,000  Level Seattle Center
Wed 05:00:06 PM 47.0511 -120.5769 109° East 329 379 17,000  Level Seattle Center
Wed 05:01:07 PM 47.0244 -120.4608 107° East 329 379 17,000 -49 Level Seattle Center
Wed 05:02:08 PM 46.9975 -120.3333 107° East 331 381 16,900 -49 Descending Seattle Center
Wed 05:03:09 PM 46.9708 -120.2064 107° East 329 379 16,900  Level Seattle Center
Wed 05:04:11 PM 46.9383 -120.0544 108° East 329 379 16,900 -146 Level Seattle Center
Wed 05:05:12 PM 46.9094 -119.9228 126° Southeast 331 381 16,600 -541 Descending Seattle Center
Wed 05:06:13 PM 46.8564 -119.8153 142° Southeast 333 383 15,800 -1,180 Descending Seattle Center
Wed 05:07:14 PM 46.7806 -119.7289 141° Southeast 347 399 14,200 -1,475 Descending Seattle Center
Wed 05:08:15 PM 46.7097 -119.6458 138° Southeast 343 395 12,800 -1,561 Descending Seattle Center
Wed 05:09:17 PM 46.6458 -119.5625 135° Southeast 313 360 11,000 -1,610 Descending Seattle Center
Wed 05:10:18 PM 46.5906 -119.4811 135° Southeast 290 334 9,500 -1,426 Descending Seattle Center
Wed 05:11:19 PM 46.5400 -119.4083 135° Southeast 267 307 8,100 -1,525 Descending Seattle Center
Wed 05:12:20 PM 46.4814 -119.3247 136° Southeast 253 291 6,400 -1,475 Descending Seattle Center
Wed 05:13:21 PM 46.4344 -119.2586 136° Southeast 243 280 5,100 -1,268 Descending Seattle Center
Wed 05:14:23 PM 46.3911 -119.1972 129° Southeast 227 261 3,800 -1,268 Descending Seattle Center
Wed 05:15:24 PM 46.3553 -119.1336 131° Southeast 211 243 2,500 -1,082 Descending Seattle Center
Wed 05:16:25 PM 46.3219 -119.0778 131° Southeast 201 231 1,600 -885 Descending Seattle Center

Login

Don't have an account? Register now (free) for customized features, flight alerts, and more!